sensor_id;sensor_type;location;lat;lon;timestamp;temperature;humidity
51215;DHT22;63849;47.546;19.254;2023-05-07T00:00:28;15.20;81.10
51215;DHT22;63849;47.546;19.254;2023-05-07T00:02:54;15.30;80.90
51215;DHT22;63849;47.546;19.254;2023-05-07T00:05:19;15.20;81.00
51215;DHT22;63849;47.546;19.254;2023-05-07T00:07:46;15.30;80.80
51215;DHT22;63849;47.546;19.254;2023-05-07T00:10:12;15.30;80.40
51215;DHT22;63849;47.546;19.254;2023-05-07T00:12:38;15.30;80.40
51215;DHT22;63849;47.546;19.254;2023-05-07T00:15:04;15.30;80.30
51215;DHT22;63849;47.546;19.254;2023-05-07T00:17:31;15.30;80.10
51215;DHT22;63849;47.546;19.254;2023-05-07T00:19:56;15.30;79.80
51215;DHT22;63849;47.546;19.254;2023-05-07T00:22:22;15.20;79.80
51215;DHT22;63849;47.546;19.254;2023-05-07T00:24:48;15.20;79.80
51215;DHT22;63849;47.546;19.254;2023-05-07T00:27:14;15.10;80.30
51215;DHT22;63849;47.546;19.254;2023-05-07T00:29:39;15.10;80.40
51215;DHT22;63849;47.546;19.254;2023-05-07T00:32:05;15.00;80.40
51215;DHT22;63849;47.546;19.254;2023-05-07T00:34:31;15.00;80.40
51215;DHT22;63849;47.546;19.254;2023-05-07T00:36:57;14.90;80.70
51215;DHT22;63849;47.546;19.254;2023-05-07T00:39:22;14.90;81.00
51215;DHT22;63849;47.546;19.254;2023-05-07T00:41:48;14.90;81.00
51215;DHT22;63849;47.546;19.254;2023-05-07T00:44:14;14.90;80.90
51215;DHT22;63849;47.546;19.254;2023-05-07T00:46:40;14.90;80.90
51215;DHT22;63849;47.546;19.254;2023-05-07T00:49:07;14.90;81.00
51215;DHT22;63849;47.546;19.254;2023-05-07T00:51:33;14.90;81.00
51215;DHT22;63849;47.546;19.254;2023-05-07T00:54:00;14.80;81.40
51215;DHT22;63849;47.546;19.254;2023-05-07T00:56:27;14.90;81.40
51215;DHT22;63849;47.546;19.254;2023-05-07T00:58:53;14.90;81.40
51215;DHT22;63849;47.546;19.254;2023-05-07T01:01:20;14.90;81.30
51215;DHT22;63849;47.546;19.254;2023-05-07T01:03:45;14.90;81.30
51215;DHT22;63849;47.546;19.254;2023-05-07T01:06:12;14.90;81.30
51215;DHT22;63849;47.546;19.254;2023-05-07T01:08:42;14.90;81.00
51215;DHT22;63849;47.546;19.254;2023-05-07T01:11:08;14.90;81.10
51215;DHT22;63849;47.546;19.254;2023-05-07T01:13:36;14.90;81.30
51215;DHT22;63849;47.546;19.254;2023-05-07T01:16:05;15.00;81.00
51215;DHT22;63849;47.546;19.254;2023-05-07T01:18:32;15.00;80.90
51215;DHT22;63849;47.546;19.254;2023-05-07T01:21:03;14.90;81.30
51215;DHT22;63849;47.546;19.254;2023-05-07T01:23:29;15.00;81.40
51215;DHT22;63849;47.546;19.254;2023-05-07T01:25:56;14.90;81.40
51215;DHT22;63849;47.546;19.254;2023-05-07T01:28:22;15.10;81.50
51215;DHT22;63849;47.546;19.254;2023-05-07T01:30:52;15.10;81.10
51215;DHT22;63849;47.546;19.254;2023-05-07T01:33:22;15.10;81.20
51215;DHT22;63849;47.546;19.254;2023-05-07T01:35:50;15.10;81.20
51215;DHT22;63849;47.546;19.254;2023-05-07T01:38:17;15.20;80.90
51215;DHT22;63849;47.546;19.254;2023-05-07T01:40:43;15.20;80.60
51215;DHT22;63849;47.546;19.254;2023-05-07T01:43:09;15.20;80.60
51215;DHT22;63849;47.546;19.254;2023-05-07T01:45:36;15.30;80.60
51215;DHT22;63849;47.546;19.254;2023-05-07T01:48:06;15.30;80.60
51215;DHT22;63849;47.546;19.254;2023-05-07T01:50:32;15.30;80.60
51215;DHT22;63849;47.546;19.254;2023-05-07T01:52:59;15.20;80.80
51215;DHT22;63849;47.546;19.254;2023-05-07T01:55:25;15.20;81.00
51215;DHT22;63849;47.546;19.254;2023-05-07T01:57:50;15.10;81.20
51215;DHT22;63849;47.546;19.254;2023-05-07T02:00:19;15.10;81.30
51215;DHT22;63849;47.546;19.254;2023-05-07T02:02:45;15.10;81.30
51215;DHT22;63849;47.546;19.254;2023-05-07T02:05:11;15.00;81.10
51215;DHT22;63849;47.546;19.254;2023-05-07T02:07:36;14.90;81.10
51215;DHT22;63849;47.546;19.254;2023-05-07T02:10:02;14.80;81.30
51215;DHT22;63849;47.546;19.254;2023-05-07T02:12:28;14.80;81.60
51215;DHT22;63849;47.546;19.254;2023-05-07T02:14:54;14.80;81.90
51215;DHT22;63849;47.546;19.254;2023-05-07T02:17:20;14.80;81.70
51215;DHT22;63849;47.546;19.254;2023-05-07T02:19:45;14.70;81.70
51215;DHT22;63849;47.546;19.254;2023-05-07T02:22:11;14.70;82.00
51215;DHT22;63849;47.546;19.254;2023-05-07T02:24:37;14.70;82.00
51215;DHT22;63849;47.546;19.254;2023-05-07T02:27:03;14.70;82.10
51215;DHT22;63849;47.546;19.254;2023-05-07T02:29:29;14.60;82.00
51215;DHT22;63849;47.546;19.254;2023-05-07T02:31:55;14.70;81.90
51215;DHT22;63849;47.546;19.254;2023-05-07T02:34:21;14.60;81.80
51215;DHT22;63849;47.546;19.254;2023-05-07T02:36:47;14.60;81.90
51215;DHT22;63849;47.546;19.254;2023-05-07T02:39:13;14.50;82.00
51215;DHT22;63849;47.546;19.254;2023-05-07T02:41:42;14.50;81.80
51215;DHT22;63849;47.546;19.254;2023-05-07T02:44:08;14.40;81.40
51215;DHT22;63849;47.546;19.254;2023-05-07T02:46:34;14.40;81.40
51215;DHT22;63849;47.546;19.254;2023-05-07T02:49:00;14.30;81.80
51215;DHT22;63849;47.546;19.254;2023-05-07T02:51:30;14.30;82.10
51215;DHT22;63849;47.546;19.254;2023-05-07T02:53:56;14.30;82.20
51215;DHT22;63849;47.546;19.254;2023-05-07T02:56:22;14.30;82.30
51215;DHT22;63849;47.546;19.254;2023-05-07T02:58:48;14.20;82.40
51215;DHT22;63849;47.546;19.254;2023-05-07T03:01:14;14.20;82.20
51215;DHT22;63849;47.546;19.254;2023-05-07T03:03:43;14.20;82.10
51215;DHT22;63849;47.546;19.254;2023-05-07T03:06:09;14.20;82.30
51215;DHT22;63849;47.546;19.254;2023-05-07T03:08:36;14.20;82.60
51215;DHT22;63849;47.546;19.254;2023-05-07T03:11:02;14.20;82.20
51215;DHT22;63849;47.546;19.254;2023-05-07T03:13:28;14.10;82.20
51215;DHT22;63849;47.546;19.254;2023-05-07T03:15:54;14.10;82.10
51215;DHT22;63849;47.546;19.254;2023-05-07T03:18:19;14.10;82.10
51215;DHT22;63849;47.546;19.254;2023-05-07T03:20:47;14.10;82.20
51215;DHT22;63849;47.546;19.254;2023-05-07T03:23:13;14.10;82.10
51215;DHT22;63849;47.546;19.254;2023-05-07T03:25:39;14.00;82.40
51215;DHT22;63849;47.546;19.254;2023-05-07T03:28:05;14.00;82.40
51215;DHT22;63849;47.546;19.254;2023-05-07T03:30:31;14.00;82.50
51215;DHT22;63849;47.546;19.254;2023-05-07T03:32:56;14.00;82.80
51215;DHT22;63849;47.546;19.254;2023-05-07T03:35:22;14.10;82.50
51215;DHT22;63849;47.546;19.254;2023-05-07T03:37:48;14.10;82.20
51215;DHT22;63849;47.546;19.254;2023-05-07T03:40:16;14.20;82.30
51215;DHT22;63849;47.546;19.254;2023-05-07T03:42:42;14.20;82.20
51215;DHT22;63849;47.546;19.254;2023-05-07T03:45:08;14.30;82.50
51215;DHT22;63849;47.546;19.254;2023-05-07T03:47:34;14.30;82.70
51215;DHT22;63849;47.546;19.254;2023-05-07T03:50:00;14.40;82.70
51215;DHT22;63849;47.546;19.254;2023-05-07T03:52:26;14.50;82.80
51215;DHT22;63849;47.546;19.254;2023-05-07T03:54:53;14.40;82.90
51215;DHT22;63849;47.546;19.254;2023-05-07T03:57:20;14.40;83.10
51215;DHT22;63849;47.546;19.254;2023-05-07T03:59:46;14.40;83.40
51215;DHT22;63849;47.546;19.254;2023-05-07T04:02:12;14.40;83.70
51215;DHT22;63849;47.546;19.254;2023-05-07T04:04:37;14.40;83.90
51215;DHT22;63849;47.546;19.254;2023-05-07T04:07:03;14.50;83.70
51215;DHT22;63849;47.546;19.254;2023-05-07T04:09:29;14.60;83.90
51215;DHT22;63849;47.546;19.254;2023-05-07T04:11:56;14.70;83.80
51215;DHT22;63849;47.546;19.254;2023-05-07T04:14:21;14.80;83.60
51215;DHT22;63849;47.546;19.254;2023-05-07T04:16:50;14.90;83.50
51215;DHT22;63849;47.546;19.254;2023-05-07T04:19:16;14.90;83.20
51215;DHT22;63849;47.546;19.254;2023-05-07T04:21:44;15.10;82.90
51215;DHT22;63849;47.546;19.254;2023-05-07T04:24:10;15.20;82.90
51215;DHT22;63849;47.546;19.254;2023-05-07T04:26:36;15.20;83.00
51215;DHT22;63849;47.546;19.254;2023-05-07T04:29:02;15.30;82.90
51215;DHT22;63849;47.546;19.254;2023-05-07T04:31:29;15.40;82.50
51215;DHT22;63849;47.546;19.254;2023-05-07T04:33:56;15.50;82.40
51215;DHT22;63849;47.546;19.254;2023-05-07T04:36:21;15.50;82.60
51215;DHT22;63849;47.546;19.254;2023-05-07T04:38:47;15.50;82.70
51215;DHT22;63849;47.546;19.254;2023-05-07T04:41:13;15.60;82.60
51215;DHT22;63849;47.546;19.254;2023-05-07T04:43:39;15.70;82.40
51215;DHT22;63849;47.546;19.254;2023-05-07T04:46:05;15.70;82.20
51215;DHT22;63849;47.546;19.254;2023-05-07T04:48:31;15.80;82.20
51215;DHT22;63849;47.546;19.254;2023-05-07T04:50:57;15.90;81.90
51215;DHT22;63849;47.546;19.254;2023-05-07T04:53:22;16.10;81.80
51215;DHT22;63849;47.546;19.254;2023-05-07T04:55:48;16.10;81.50
51215;DHT22;63849;47.546;19.254;2023-05-07T04:58:14;16.30;81.10
51215;DHT22;63849;47.546;19.254;2023-05-07T05:00:41;16.60;80.30
51215;DHT22;63849;47.546;19.254;2023-05-07T05:03:07;16.80;80.00
51215;DHT22;63849;47.546;19.254;2023-05-07T05:05:33;17.00;79.00
51215;DHT22;63849;47.546;19.254;2023-05-07T05:07:59;17.10;78.70
51215;DHT22;63849;47.546;19.254;2023-05-07T05:10:25;17.20;78.00
51215;DHT22;63849;47.546;19.254;2023-05-07T05:12:51;17.30;77.80
51215;DHT22;63849;47.546;19.254;2023-05-07T05:15:17;17.40;77.50
51215;DHT22;63849;47.546;19.254;2023-05-07T05:17:43;17.50;77.20
51215;DHT22;63849;47.546;19.254;2023-05-07T05:20:09;17.60;76.60
51215;DHT22;63849;47.546;19.254;2023-05-07T05:22:37;17.70;76.30
51215;DHT22;63849;47.546;19.254;2023-05-07T05:25:03;18.00;75.10
51215;DHT22;63849;47.546;19.254;2023-05-07T05:27:29;18.30;74.00
51215;DHT22;63849;47.546;19.254;2023-05-07T05:29:55;18.50;73.70
51215;DHT22;63849;47.546;19.254;2023-05-07T05:32:21;18.90;72.70
51215;DHT22;63849;47.546;19.254;2023-05-07T05:34:47;19.20;71.40
51215;DHT22;63849;47.546;19.254;2023-05-07T05:37:13;19.50;71.40
51215;DHT22;63849;47.546;19.254;2023-05-07T05:39:39;19.90;70.10
51215;DHT22;63849;47.546;19.254;2023-05-07T05:42:04;20.40;68.50
51215;DHT22;63849;47.546;19.254;2023-05-07T05:44:30;20.90;65.60
51215;DHT22;63849;47.546;19.254;2023-05-07T05:46:56;21.30;65.10
51215;DHT22;63849;47.546;19.254;2023-05-07T05:49:29;21.70;63.70
51215;DHT22;63849;47.546;19.254;2023-05-07T05:51:55;22.10;62.30
51215;DHT22;63849;47.546;19.254;2023-05-07T05:54:21;22.70;60.40
51215;DHT22;63849;47.546;19.254;2023-05-07T05:56:47;23.20;58.70
51215;DHT22;63849;47.546;19.254;2023-05-07T05:59:14;23.40;57.50
51215;DHT22;63849;47.546;19.254;2023-05-07T06:01:40;23.40;55.70
51215;DHT22;63849;47.546;19.254;2023-05-07T06:04:08;23.60;54.50
51215;DHT22;63849;47.546;19.254;2023-05-07T06:06:37;23.40;53.40
51215;DHT22;63849;47.546;19.254;2023-05-07T06:09:03;23.30;53.80
51215;DHT22;63849;47.546;19.254;2023-05-07T06:11:31;23.10;55.10
51215;DHT22;63849;47.546;19.254;2023-05-07T06:13:56;23.50;52.80
51215;DHT22;63849;47.546;19.254;2023-05-07T06:16:22;23.90;52.70
51215;DHT22;63849;47.546;19.254;2023-05-07T06:18:49;24.20;51.40
51215;DHT22;63849;47.546;19.254;2023-05-07T06:21:18;24.30;49.90
51215;DHT22;63849;47.546;19.254;2023-05-07T06:23:44;24.00;49.40
51215;DHT22;63849;47.546;19.254;2023-05-07T06:26:12;23.70;50.20
51215;DHT22;63849;47.546;19.254;2023-05-07T06:28:38;23.70;50.80
51215;DHT22;63849;47.546;19.254;2023-05-07T06:31:16;23.40;51.60
51215;DHT22;63849;47.546;19.254;2023-05-07T06:33:43;23.80;51.40
51215;DHT22;63849;47.546;19.254;2023-05-07T06:36:12;24.00;50.60
51215;DHT22;63849;47.546;19.254;2023-05-07T06:38:38;24.10;48.20
51215;DHT22;63849;47.546;19.254;2023-05-07T06:41:06;23.90;49.00
51215;DHT22;63849;47.546;19.254;2023-05-07T06:43:35;24.50;47.30
51215;DHT22;63849;47.546;19.254;2023-05-07T06:46:04;25.00;47.40
51215;DHT22;63849;47.546;19.254;2023-05-07T06:48:33;25.30;45.60
51215;DHT22;63849;47.546;19.254;2023-05-07T06:51:04;25.70;44.80
51215;DHT22;63849;47.546;19.254;2023-05-07T06:53:30;26.40;43.80
51215;DHT22;63849;47.546;19.254;2023-05-07T06:55:57;26.70;43.30
51215;DHT22;63849;47.546;19.254;2023-05-07T06:58:23;26.90;44.30
51215;DHT22;63849;47.546;19.254;2023-05-07T07:00:49;27.20;43.30
51215;DHT22;63849;47.546;19.254;2023-05-07T07:03:15;27.60;43.60
51215;DHT22;63849;47.546;19.254;2023-05-07T07:05:41;27.60;42.20
51215;DHT22;63849;47.546;19.254;2023-05-07T07:08:08;27.90;42.80
51215;DHT22;63849;47.546;19.254;2023-05-07T07:10:33;27.40;41.40
51215;DHT22;63849;47.546;19.254;2023-05-07T07:12:59;27.60;41.30
51215;DHT22;63849;47.546;19.254;2023-05-07T07:15:26;27.60;42.30
51215;DHT22;63849;47.546;19.254;2023-05-07T07:17:53;28.30;41.00
51215;DHT22;63849;47.546;19.254;2023-05-07T07:20:22;28.50;40.20
51215;DHT22;63849;47.546;19.254;2023-05-07T07:22:48;28.90;38.90
51215;DHT22;63849;47.546;19.254;2023-05-07T07:25:14;28.80;39.70
51215;DHT22;63849;47.546;19.254;2023-05-07T07:27:40;28.90;38.60
51215;DHT22;63849;47.546;19.254;2023-05-07T07:30:07;28.70;39.60
51215;DHT22;63849;47.546;19.254;2023-05-07T07:32:33;28.60;41.00
51215;DHT22;63849;47.546;19.254;2023-05-07T07:35:00;28.40;39.80
51215;DHT22;63849;47.546;19.254;2023-05-07T07:37:29;28.30;40.90
51215;DHT22;63849;47.546;19.254;2023-05-07T07:39:55;27.90;40.30
51215;DHT22;63849;47.546;19.254;2023-05-07T07:42:24;27.60;41.60
51215;DHT22;63849;47.546;19.254;2023-05-07T07:44:50;27.10;41.70
51215;DHT22;63849;47.546;19.254;2023-05-07T07:47:19;26.90;42.50
51215;DHT22;63849;47.546;19.254;2023-05-07T07:49:45;26.30;42.80
51215;DHT22;63849;47.546;19.254;2023-05-07T07:52:11;25.50;45.00
51215;DHT22;63849;47.546;19.254;2023-05-07T07:54:37;25.40;45.40
51215;DHT22;63849;47.546;19.254;2023-05-07T07:57:03;25.40;45.60
51215;DHT22;63849;47.546;19.254;2023-05-07T07:59:28;25.20;46.00
51215;DHT22;63849;47.546;19.254;2023-05-07T08:01:54;25.10;45.20
51215;DHT22;63849;47.546;19.254;2023-05-07T08:04:22;25.00;46.00
51215;DHT22;63849;47.546;19.254;2023-05-07T08:06:48;24.80;46.20
51215;DHT22;63849;47.546;19.254;2023-05-07T08:09:15;24.30;43.90
51215;DHT22;63849;47.546;19.254;2023-05-07T08:11:43;24.20;45.90
51215;DHT22;63849;47.546;19.254;2023-05-07T08:14:11;24.10;46.90
51215;DHT22;63849;47.546;19.254;2023-05-07T08:16:37;24.00;45.90
51215;DHT22;63849;47.546;19.254;2023-05-07T08:19:03;24.40;46.50
51215;DHT22;63849;47.546;19.254;2023-05-07T08:21:29;24.50;45.50
51215;DHT22;63849;47.546;19.254;2023-05-07T08:24:05;24.20;45.00
51215;DHT22;63849;47.546;19.254;2023-05-07T08:26:31;23.90;44.80
51215;DHT22;63849;47.546;19.254;2023-05-07T08:28:59;23.60;46.10
51215;DHT22;63849;47.546;19.254;2023-05-07T08:31:25;23.70;44.50
51215;DHT22;63849;47.546;19.254;2023-05-07T08:33:51;23.70;45.90
51215;DHT22;63849;47.546;19.254;2023-05-07T08:36:16;23.90;46.00
51215;DHT22;63849;47.546;19.254;2023-05-07T08:38:45;23.90;46.30
51215;DHT22;63849;47.546;19.254;2023-05-07T08:41:15;23.70;45.50
51215;DHT22;63849;47.546;19.254;2023-05-07T08:43:50;23.50;44.50
51215;DHT22;63849;47.546;19.254;2023-05-07T08:46:22;23.40;44.20
51215;DHT22;63849;47.546;19.254;2023-05-07T08:48:52;23.20;44.90
51215;DHT22;63849;47.546;19.254;2023-05-07T08:51:19;23.30;47.80
51215;DHT22;63849;47.546;19.254;2023-05-07T08:53:47;23.30;48.60
51215;DHT22;63849;47.546;19.254;2023-05-07T08:56:17;23.30;50.50
51215;DHT22;63849;47.546;19.254;2023-05-07T08:58:45;23.20;50.50
51215;DHT22;63849;47.546;19.254;2023-05-07T09:01:18;23.30;51.90
51215;DHT22;63849;47.546;19.254;2023-05-07T09:03:44;23.40;51.50
51215;DHT22;63849;47.546;19.254;2023-05-07T09:06:11;23.50;51.40
51215;DHT22;63849;47.546;19.254;2023-05-07T09:08:37;23.80;50.20
51215;DHT22;63849;47.546;19.254;2023-05-07T09:11:03;23.80;48.70
51215;DHT22;63849;47.546;19.254;2023-05-07T09:13:29;23.40;50.40
51215;DHT22;63849;47.546;19.254;2023-05-07T09:15:55;23.60;51.40
51215;DHT22;63849;47.546;19.254;2023-05-07T09:18:31;23.50;51.30
51215;DHT22;63849;47.546;19.254;2023-05-07T09:20:57;23.10;49.60
51215;DHT22;63849;47.546;19.254;2023-05-07T09:23:25;23.20;51.00
51215;DHT22;63849;47.546;19.254;2023-05-07T09:26:00;23.40;50.80
51215;DHT22;63849;47.546;19.254;2023-05-07T09:28:27;23.30;49.60
51215;DHT22;63849;47.546;19.254;2023-05-07T09:30:53;23.40;50.10
51215;DHT22;63849;47.546;19.254;2023-05-07T09:33:27;23.30;49.70
51215;DHT22;63849;47.546;19.254;2023-05-07T09:35:55;23.40;48.60
51215;DHT22;63849;47.546;19.254;2023-05-07T09:38:22;23.20;49.70
51215;DHT22;63849;47.546;19.254;2023-05-07T09:41:05;23.20;48.20
51215;DHT22;63849;47.546;19.254;2023-05-07T09:43:36;23.20;49.80
51215;DHT22;63849;47.546;19.254;2023-05-07T09:46:13;23.10;48.40
51215;DHT22;63849;47.546;19.254;2023-05-07T09:48:53;23.20;48.50
51215;DHT22;63849;47.546;19.254;2023-05-07T09:51:29;23.30;48.40
51215;DHT22;63849;47.546;19.254;2023-05-07T09:53:56;23.40;48.40
51215;DHT22;63849;47.546;19.254;2023-05-07T09:56:23;22.90;47.90
51215;DHT22;63849;47.546;19.254;2023-05-07T09:58:54;23.10;46.00
51215;DHT22;63849;47.546;19.254;2023-05-07T10:01:21;23.00;46.80
51215;DHT22;63849;47.546;19.254;2023-05-07T10:03:53;23.00;46.20
51215;DHT22;63849;47.546;19.254;2023-05-07T10:06:20;22.80;45.60
51215;DHT22;63849;47.546;19.254;2023-05-07T10:08:46;22.90;46.80
51215;DHT22;63849;47.546;19.254;2023-05-07T10:11:14;23.00;47.90
51215;DHT22;63849;47.546;19.254;2023-05-07T10:13:41;23.10;48.80
51215;DHT22;63849;47.546;19.254;2023-05-07T10:16:11;23.40;47.40
51215;DHT22;63849;47.546;19.254;2023-05-07T10:18:38;23.40;46.60
51215;DHT22;63849;47.546;19.254;2023-05-07T10:21:09;23.60;47.10
51215;DHT22;63849;47.546;19.254;2023-05-07T10:23:40;23.60;44.90
51215;DHT22;63849;47.546;19.254;2023-05-07T10:26:08;23.20;45.50
51215;DHT22;63849;47.546;19.254;2023-05-07T10:28:45;23.20;48.50
51215;DHT22;63849;47.546;19.254;2023-05-07T10:33:57;23.10;48.20
51215;DHT22;63849;47.546;19.254;2023-05-07T10:36:24;22.80;49.70
51215;DHT22;63849;47.546;19.254;2023-05-07T10:38:52;22.70;48.80
51215;DHT22;63849;47.546;19.254;2023-05-07T10:41:18;22.40;49.10
51215;DHT22;63849;47.546;19.254;2023-05-07T10:43:45;22.50;50.00
51215;DHT22;63849;47.546;19.254;2023-05-07T10:46:19;22.60;49.10
51215;DHT22;63849;47.546;19.254;2023-05-07T10:51:34;22.70;49.10
51215;DHT22;63849;47.546;19.254;2023-05-07T10:54:30;22.70;49.90
51215;DHT22;63849;47.546;19.254;2023-05-07T10:56:55;22.70;49.00
51215;DHT22;63849;47.546;19.254;2023-05-07T11:02:00;22.60;50.70
51215;DHT22;63849;47.546;19.254;2023-05-07T11:04:34;22.40;50.70
51215;DHT22;63849;47.546;19.254;2023-05-07T11:07:26;22.40;54.80
51215;DHT22;63849;47.546;19.254;2023-05-07T11:15:07;21.90;57.70
51215;DHT22;63849;47.546;19.254;2023-05-07T11:17:34;21.70;57.80
51215;DHT22;63849;47.546;19.254;2023-05-07T11:20:04;21.60;56.40
51215;DHT22;63849;47.546;19.254;2023-05-07T11:22:37;21.60;56.40
51215;DHT22;63849;47.546;19.254;2023-05-07T11:25:06;21.60;56.30
51215;DHT22;63849;47.546;19.254;2023-05-07T11:27:35;21.60;55.20
51215;DHT22;63849;47.546;19.254;2023-05-07T11:30:02;21.60;55.30
51215;DHT22;63849;47.546;19.254;2023-05-07T11:32:30;21.60;56.60
51215;DHT22;63849;47.546;19.254;2023-05-07T11:34:59;21.70;54.80
51215;DHT22;63849;47.546;19.254;2023-05-07T11:37:26;21.70;55.50
51215;DHT22;63849;47.546;19.254;2023-05-07T11:40:06;21.80;55.90
51215;DHT22;63849;47.546;19.254;2023-05-07T11:42:34;21.80;54.40
51215;DHT22;63849;47.546;19.254;2023-05-07T11:45:01;21.80;55.60
51215;DHT22;63849;47.546;19.254;2023-05-07T11:47:30;21.80;55.60
51215;DHT22;63849;47.546;19.254;2023-05-07T11:49:56;21.90;52.00
51215;DHT22;63849;47.546;19.254;2023-05-07T11:52:24;22.00;52.70
51215;DHT22;63849;47.546;19.254;2023-05-07T11:54:55;22.10;51.90
51215;DHT22;63849;47.546;19.254;2023-05-07T11:57:21;22.40;52.90
51215;DHT22;63849;47.546;19.254;2023-05-07T11:59:58;22.50;50.40
51215;DHT22;63849;47.546;19.254;2023-05-07T12:02:28;22.50;49.60
51215;DHT22;63849;47.546;19.254;2023-05-07T12:04:54;22.70;50.80
51215;DHT22;63849;47.546;19.254;2023-05-07T12:07:20;22.80;52.00
51215;DHT22;63849;47.546;19.254;2023-05-07T12:09:53;22.70;51.80
51215;DHT22;63849;47.546;19.254;2023-05-07T12:12:19;22.50;52.00
51215;DHT22;63849;47.546;19.254;2023-05-07T12:14:45;22.40;53.10
51215;DHT22;63849;47.546;19.254;2023-05-07T12:17:13;22.10;52.60
51215;DHT22;63849;47.546;19.254;2023-05-07T12:19:40;21.90;53.80
51215;DHT22;63849;47.546;19.254;2023-05-07T12:22:12;21.70;54.00
51215;DHT22;63849;47.546;19.254;2023-05-07T12:24:47;21.60;57.40
51215;DHT22;63849;47.546;19.254;2023-05-07T12:27:14;21.40;63.40
51215;DHT22;63849;47.546;19.254;2023-05-07T12:29:43;21.10;67.50
51215;DHT22;63849;47.546;19.254;2023-05-07T12:32:14;20.90;69.20
51215;DHT22;63849;47.546;19.254;2023-05-07T12:34:40;20.90;70.00
51215;DHT22;63849;47.546;19.254;2023-05-07T12:37:06;20.80;69.80
51215;DHT22;63849;47.546;19.254;2023-05-07T12:39:35;20.90;65.10
51215;DHT22;63849;47.546;19.254;2023-05-07T12:42:04;21.20;69.20
51215;DHT22;63849;47.546;19.254;2023-05-07T12:44:36;21.40;67.80
51215;DHT22;63849;47.546;19.254;2023-05-07T12:47:02;21.40;66.50
51215;DHT22;63849;47.546;19.254;2023-05-07T12:49:29;21.30;63.80
51215;DHT22;63849;47.546;19.254;2023-05-07T12:51:55;21.40;63.30
51215;DHT22;63849;47.546;19.254;2023-05-07T12:54:37;21.50;63.20
51215;DHT22;63849;47.546;19.254;2023-05-07T12:57:08;21.50;61.40
51215;DHT22;63849;47.546;19.254;2023-05-07T12:59:38;21.40;58.20
51215;DHT22;63849;47.546;19.254;2023-05-07T13:02:16;21.50;59.10
51215;DHT22;63849;47.546;19.254;2023-05-07T13:04:43;21.60;59.00
51215;DHT22;63849;47.546;19.254;2023-05-07T13:07:12;21.80;59.90
51215;DHT22;63849;47.546;19.254;2023-05-07T13:09:38;21.70;58.70
51215;DHT22;63849;47.546;19.254;2023-05-07T13:12:04;21.90;57.00
51215;DHT22;63849;47.546;19.254;2023-05-07T13:14:31;22.20;58.30
51215;DHT22;63849;47.546;19.254;2023-05-07T13:16:57;22.30;55.60
51215;DHT22;63849;47.546;19.254;2023-05-07T13:19:23;22.20;56.00
51215;DHT22;63849;47.546;19.254;2023-05-07T13:21:49;22.10;54.20
51215;DHT22;63849;47.546;19.254;2023-05-07T13:24:15;22.00;54.20
51215;DHT22;63849;47.546;19.254;2023-05-07T13:26:41;21.70;55.70
51215;DHT22;63849;47.546;19.254;2023-05-07T13:29:07;21.60;56.10
51215;DHT22;63849;47.546;19.254;2023-05-07T13:31:33;21.40;55.00
51215;DHT22;63849;47.546;19.254;2023-05-07T13:33:59;21.20;55.10
51215;DHT22;63849;47.546;19.254;2023-05-07T13:36:25;21.10;55.70
51215;DHT22;63849;47.546;19.254;2023-05-07T13:38:52;21.10;56.20
51215;DHT22;63849;47.546;19.254;2023-05-07T13:41:18;21.20;56.10
51215;DHT22;63849;47.546;19.254;2023-05-07T13:43:43;21.40;57.10
51215;DHT22;63849;47.546;19.254;2023-05-07T13:46:09;21.50;55.70
51215;DHT22;63849;47.546;19.254;2023-05-07T13:48:35;21.80;55.00
51215;DHT22;63849;47.546;19.254;2023-05-07T13:51:01;21.90;54.10
51215;DHT22;63849;47.546;19.254;2023-05-07T13:53:30;22.20;52.20
51215;DHT22;63849;47.546;19.254;2023-05-07T13:55:56;22.40;52.10
51215;DHT22;63849;47.546;19.254;2023-05-07T13:58:24;22.50;52.50
51215;DHT22;63849;47.546;19.254;2023-05-07T14:00:50;22.50;53.00
51215;DHT22;63849;47.546;19.254;2023-05-07T14:03:16;22.40;51.70
51215;DHT22;63849;47.546;19.254;2023-05-07T14:05:43;22.40;52.00
51215;DHT22;63849;47.546;19.254;2023-05-07T14:08:08;22.40;52.10
51215;DHT22;63849;47.546;19.254;2023-05-07T14:10:34;22.20;53.10
51215;DHT22;63849;47.546;19.254;2023-05-07T14:13:01;22.10;52.90
51215;DHT22;63849;47.546;19.254;2023-05-07T14:15:26;21.90;52.40
51215;DHT22;63849;47.546;19.254;2023-05-07T14:17:52;21.90;51.90
51215;DHT22;63849;47.546;19.254;2023-05-07T14:20:18;21.70;50.50
51215;DHT22;63849;47.546;19.254;2023-05-07T14:22:44;21.80;53.00
51215;DHT22;63849;47.546;19.254;2023-05-07T14:25:13;21.80;52.80
51215;DHT22;63849;47.546;19.254;2023-05-07T14:27:39;21.80;51.60
51215;DHT22;63849;47.546;19.254;2023-05-07T14:30:05;21.80;51.90
51215;DHT22;63849;47.546;19.254;2023-05-07T14:32:32;21.80;53.40
51215;DHT22;63849;47.546;19.254;2023-05-07T14:34:58;21.80;52.50
51215;DHT22;63849;47.546;19.254;2023-05-07T14:37:24;21.80;50.60
51215;DHT22;63849;47.546;19.254;2023-05-07T14:39:54;21.80;50.60
51215;DHT22;63849;47.546;19.254;2023-05-07T14:42:20;21.80;51.00
51215;DHT22;63849;47.546;19.254;2023-05-07T14:44:48;21.80;49.80
51215;DHT22;63849;47.546;19.254;2023-05-07T14:47:20;21.70;50.90
51215;DHT22;63849;47.546;19.254;2023-05-07T14:49:46;21.90;51.60
51215;DHT22;63849;47.546;19.254;2023-05-07T14:52:12;21.90;51.00
51215;DHT22;63849;47.546;19.254;2023-05-07T14:54:38;21.90;51.40
51215;DHT22;63849;47.546;19.254;2023-05-07T14:57:06;21.90;51.60
51215;DHT22;63849;47.546;19.254;2023-05-07T14:59:32;21.70;51.90
51215;DHT22;63849;47.546;19.254;2023-05-07T15:01:58;21.50;51.30
51215;DHT22;63849;47.546;19.254;2023-05-07T15:04:24;21.40;49.30
51215;DHT22;63849;47.546;19.254;2023-05-07T15:06:50;21.30;49.00
51215;DHT22;63849;47.546;19.254;2023-05-07T15:09:17;21.40;51.00
51215;DHT22;63849;47.546;19.254;2023-05-07T15:11:43;21.40;52.20
51215;DHT22;63849;47.546;19.254;2023-05-07T15:14:09;21.40;51.80
51215;DHT22;63849;47.546;19.254;2023-05-07T15:16:35;21.30;51.70
51215;DHT22;63849;47.546;19.254;2023-05-07T15:19:04;21.20;51.20
51215;DHT22;63849;47.546;19.254;2023-05-07T15:21:32;21.10;52.00
51215;DHT22;63849;47.546;19.254;2023-05-07T15:24:00;21.20;52.00
51215;DHT22;63849;47.546;19.254;2023-05-07T15:26:27;21.20;51.00
51215;DHT22;63849;47.546;19.254;2023-05-07T15:28:56;21.10;50.70